Overview Statistics Trail Chart Weather Telemetry Raw packets
 

This is the latest recevied weather packets stored in our database for station/object WA6OOO. If no packets are shown the sender has not sent any weather packets the latest 10 day(s).

<< 57 58 59 60 61 62 63 >>
Time Temp. Humidity Pressure Rain* Wind** Luminosity Snow
1788284321 23.33° C 64% 1019.4 hPa 0 mm - 565 W/m² -
1788284021 23.33° C 65% 1019.3 hPa 0 mm - 552 W/m² -
1788283718 22.78° C 65% 1019 hPa 0 mm - 542 W/m² -
1788283417 22.78° C 67% 1019.2 hPa 0 mm - 524 W/m² -
1788283115 22.22° C 68% 1019.3 hPa 0 mm - 514 W/m² -
1788282814 22.22° C 68% 1019.1 hPa 0 mm - 503 W/m² -
1788282513 21.11° C 73% 1018.9 hPa 0 mm - 489 W/m² -
1788282208 21.67° C 72% 1019.1 hPa 0 mm - 477 W/m² -
1788281907 21.11° C 73% 1019.2 hPa 0 mm - 468 W/m² -
1788281602 21.11° C 72% 1019 hPa 0 mm - 453 W/m² -
1788281299 21.11° C 71% 1019.2 hPa 0 mm - 438 W/m² -
1788280994 21.11° C 74% 1019 hPa 0 mm - 423 W/m² -
1788280689 20.56° C 76% 1019.3 hPa 0 mm - 411 W/m² -
1788280389 20.56° C 77% 1019.2 hPa 0 mm - 396 W/m² -
1788280083 20° C 78% 1019.1 hPa 0 mm - 380 W/m² -
1788279783 20° C 78% 1018.9 hPa 0 mm - 367 W/m² -
1788279482 20° C 78% 1019.2 hPa 0 mm - 354 W/m² -
1788279176 19.44° C 80% 1019.3 hPa 0 mm - 423 W/m² -
1788278872 19.44° C 81% 1019.1 hPa 0 mm - 445 W/m² -
1788278568 19.44° C 81% 1019.2 hPa 0 mm - 345 W/m² -
1788278267 19.44° C 81% 1019.2 hPa 0 mm - 290 W/m² -
1788277962 18.33° C 84% 1019.2 hPa 0 mm - 262 W/m² -
1788277657 18.33° C 86% 1019.2 hPa 0 mm - 231 W/m² -
1788277352 17.78° C 87% 1019 hPa 0 mm - 206 W/m² -
1788277048 17.22° C 89% 1019.2 hPa 0 mm - 186 W/m² -

* Rain latest hour (hover to see other rain measurements)
** Current wind speed in m/s (hover to see current wind gust speed)